Terminal Aerodrome Forecast
Issued by NWS

Home | Current Version | Previous Version | Text Only | Print | Product List | Glossary On
Versions: 1 2 3 4 5 6 7 8 9 10 11 12 13 14 15 16
889
FTPA31 PHFO 181122
TAFHKO
TAF
PHKO 181122Z 1812/1912 VRB06KT P6SM FEW060 BKN250
     FM182000 21010KT P6SM FEW030 SCT060
     FM190400 15008KT P6SM FEW030 SCT060=

USA.gov is the U.S. government's official web portal to all federal, state and local government web resources and services.